Time;durP1;ratioP1;P1;durP2;ratioP2;P2;SDS_P1;SDS_P2;PMS_P1;PMS_P2;Temp;Humidity;BMP_temperature;BMP_pressure;BME280_temperature;BME280_humidity;BME280_pressure;Samples;Min_cycle;Max_cycle;Signal;HPM_P1;HPM_P2
2021/06/09 00:01:32;;;;;;;14.20;12.70;;;;;;;18.08;84.85;100882.84;5053809;28;20045;-65
2021/06/09 00:03:59;;;;;;;14.82;12.38;;;;;;;18.08;85.21;100884.69;5048776;28;20527;-66
2021/06/09 00:06:27;;;;;;;15.65;13.60;;;;;;;18.05;85.22;100883.06;5062303;28;20029;-65
2021/06/09 00:08:53;;;;;;;15.85;13.23;;;;;;;18.05;84.53;100880.38;5049918;28;20056;-62
2021/06/09 00:11:21;;;;;;;14.90;13.38;;;;;;;18.05;84.96;100887.56;5031619;28;20064;-60
2021/06/09 00:13:48;;;;;;;16.75;13.00;;;;;;;18.01;84.73;100886.91;5031797;28;20160;-64
2021/06/09 00:16:18;;;;;;;14.00;12.50;;;;;;;18.01;84.69;100891.41;5033544;28;20472;-62
2021/06/09 00:18:44;;;;;;;16.65;13.93;;;;;;;18.01;84.30;100886.06;5033306;28;20049;-61
2021/06/09 00:21:12;;;;;;;14.85;13.32;;;;;;;18.02;84.09;100887.78;5032404;28;20148;-63
2021/06/09 00:23:38;;;;;;;14.60;13.10;;;;;;;18.04;84.03;100883.16;5029211;28;20540;-62
2021/06/09 00:26:05;;;;;;;14.75;13.25;;;;;;;18.03;83.77;100884.13;5031842;28;20048;-65
2021/06/09 00:28:34;;;;;;;15.60;13.90;;;;;;;18.02;83.73;100891.31;5035311;28;20056;-63
2021/06/09 00:31:02;;;;;;;16.02;13.65;;;;;;;18.02;83.89;100885.97;5031096;28;20398;-64
2021/06/09 00:33:29;;;;;;;13.85;12.40;;;;;;;17.99;83.70;100891.53;5031304;28;20036;-61
2021/06/09 00:35:57;;;;;;;14.73;13.27;;;;;;;18.00;83.65;100892.38;5031065;28;20067;-59
2021/06/09 00:38:25;;;;;;;15.57;13.98;;;;;;;17.97;83.73;100885.41;5028796;28;20057;-66
2021/06/09 00:40:52;;;;;;;15.02;13.45;;;;;;;17.95;83.74;100900.72;5034529;28;20056;-63
2021/06/09 00:43:24;;;;;;;14.75;13.23;;;;;;;17.97;83.53;100906.00;5031368;28;20060;-64
2021/06/09 00:46:00;;;;;;;15.60;13.90;;;;;;;17.99;83.51;100898.72;5033461;28;20067;-63
2021/06/09 00:48:29;;;;;;;16.38;13.65;;;;;;;17.96;83.20;100898.91;5029952;28;20489;-66
2021/06/09 00:51:02;;;;;;;15.20;13.13;;;;;;;17.93;83.40;100899.16;5032706;28;20123;-63
2021/06/09 00:56:12;;;;;;;14.35;12.85;;;;;;;17.96;83.17;100894.41;5036274;28;20056;-62
2021/06/09 00:58:43;;;;;;;16.77;14.05;;;;;;;17.97;83.09;100896.13;5016526;28;20051;-60
2021/06/09 01:01:11;;;;;;;14.93;13.32;;;;;;;17.97;83.07;100906.84;5033471;28;20045;-64
2021/06/09 01:03:39;;;;;;;14.40;12.95;;;;;;;18.01;83.17;100907.50;5031635;28;20056;-64
2021/06/09 01:06:06;;;;;;;15.57;12.95;;;;;;;18.04;82.57;100896.56;5032074;28;20076;-69
2021/06/09 01:08:38;;;;;;;15.15;13.65;;;;;;;18.03;82.49;100900.22;5036069;28;20049;-62
2021/06/09 01:11:08;;;;;;;16.45;13.88;;;;;;;18.02;82.51;100895.81;5032234;28;20102;-62
2021/06/09 01:13:35;;;;;;;14.95;13.25;;;;;;;18.02;82.15;100896.69;5025944;28;20435;-62
2021/06/09 01:16:02;;;;;;;14.43;12.75;;;;;;;18.02;82.48;100902.03;5024429;28;20041;-63
2021/06/09 01:18:28;;;;;;;14.85;12.55;;;;;;;18.04;82.44;100893.88;5027769;28;20132;-65
2021/06/09 01:20:57;;;;;;;14.27;12.88;;;;;;;18.02;82.12;100895.81;5024606;28;20056;-62
2021/06/09 01:23:24;;;;;;;16.05;13.25;;;;;;;17.98;82.37;100889.81;5034669;28;20400;-61
2021/06/09 01:25:51;;;;;;;14.18;12.75;;;;;;;17.97;82.75;100903.31;5027290;28;20500;-63
2021/06/09 01:28:17;;;;;;;14.90;13.27;;;;;;;17.94;82.74;100898.19;5026967;28;24589;-65
2021/06/09 01:30:44;;;;;;;14.95;13.35;;;;;;;17.96;82.58;100898.91;5035571;28;20061;-66
2021/06/09 01:33:11;;;;;;;14.43;13.02;;;;;;;17.94;82.60;100899.03;5027284;28;20068;-66
2021/06/09 01:35:38;;;;;;;14.57;12.60;;;;;;;17.92;82.71;100903.66;5037904;28;20069;-64
2021/06/09 01:38:06;;;;;;;14.55;13.05;;;;;;;17.90;82.64;100905.56;5026289;28;20515;-64
2021/06/09 01:40:33;;;;;;;13.52;12.13;;;;;;;17.90;82.92;100905.56;5028831;28;20420;-65
2021/06/09 01:43:02;;;;;;;13.95;12.55;;;;;;;17.94;83.21;100901.72;5024935;28;20056;-64
2021/06/09 01:45:31;;;;;;;14.98;13.20;;;;;;;17.96;82.90;100898.91;5031069;28;20106;-61
2021/06/09 01:47:59;;;;;;;15.48;13.32;;;;;;;17.96;82.18;100894.41;5022529;28;20136;-66
2021/06/09 01:50:27;;;;;;;15.20;13.65;;;;;;;17.91;82.55;100895.72;5030450;28;20072;-64
2021/06/09 01:52:54;;;;;;;16.70;13.52;;;;;;;17.87;82.51;100895.06;5028733;28;20055;-63
2021/06/09 01:55:23;;;;;;;13.80;12.30;;;;;;;17.85;83.15;100892.50;5028901;28;20063;-63
2021/06/09 01:57:51;;;;;;;14.63;12.80;;;;;;;17.86;82.97;100890.66;5029204;28;20412;-62
2021/06/09 02:00:25;;;;;;;14.73;13.23;;;;;;;17.87;82.45;100898.59;5031349;28;20053;-64
2021/06/09 02:02:59;;;;;;;13.95;12.32;;;;;;;17.87;82.40;100903.09;5023579;28;20147;-67
2021/06/09 02:05:31;;;;;;;13.82;12.27;;;;;;;17.87;82.44;100900.41;5035672;28;20416;-67
2021/06/09 02:08:00;;;;;;;15.00;12.57;;;;;;;17.85;82.45;100888.94;5028476;28;20044;-63
2021/06/09 02:10:27;;;;;;;16.25;13.63;;;;;;;17.85;82.40;100900.53;5030750;28;20053;-63
2021/06/09 02:12:57;;;;;;;15.73;14.13;;;;;;;17.82;82.37;100899.88;5025491;28;20057;-65
2021/06/09 02:15:25;;;;;;;16.63;13.02;;;;;;;17.83;82.72;100896.22;5025104;28;20060;-65
2021/06/09 02:17:59;;;;;;;14.85;13.18;;;;;;;17.82;82.65;100894.50;5026423;28;20049;-64
2021/06/09 02:20:28;;;;;;;14.02;12.60;;;;;;;17.81;82.56;100892.81;5024552;28;20064;-60
2021/06/09 02:22:55;;;;;;;14.73;13.23;;;;;;;17.80;82.58;100901.78;5025951;28;20055;-64
2021/06/09 02:25:22;;;;;;;15.38;12.90;;;;;;;17.78;82.58;100899.25;5030165;28;20050;-65
2021/06/09 02:27:49;;;;;;;18.33;13.63;;;;;;;17.76;82.93;100898.50;5023558;28;20059;-58
2021/06/09 02:30:17;;;;;;;15.30;13.75;;;;;;;17.74;83.13;100891.53;5029037;28;20191;-64
2021/06/09 02:32:46;;;;;;;14.18;12.68;;;;;;;17.74;82.98;100895.06;5025863;28;20044;-68
2021/06/09 02:35:16;;;;;;;14.60;13.10;;;;;;;17.75;83.05;100890.56;5028517;28;20186;-64
2021/06/09 02:37:44;;;;;;;14.88;12.85;;;;;;;17.76;83.03;100893.13;5030767;28;20063;-62
2021/06/09 02:40:12;;;;;;;15.77;13.40;;;;;;;17.73;82.78;100889.81;5028264;28;21237;-64
2021/06/09 02:42:38;;;;;;;19.27;14.00;;;;;;;17.71;82.92;100892.59;5030750;28;20044;-67
2021/06/09 02:45:08;;;;;;;14.88;13.25;;;;;;;17.69;83.39;100886.47;5026009;28;20057;-66
2021/06/09 02:47:38;;;;;;;15.88;13.85;;;;;;;17.69;83.23;100888.28;5026400;28;20053;-66
2021/06/09 02:50:06;;;;;;;17.30;13.05;;;;;;;17.66;83.58;100886.69;5029187;28;20057;-63
2021/06/09 02:52:45;;;;;;;14.77;13.15;;;;;;;17.65;83.59;100887.63;5022820;28;20705;-65
2021/06/09 02:55:21;;;;;;;14.15;12.68;;;;;;;17.65;83.72;100886.78;5031406;28;20052;-65
2021/06/09 02:58:26;;;;;;;14.18;12.68;;;;;;;17.64;83.79;100895.78;5026934;28;20057;-63
2021/06/09 03:01:14;;;;;;;14.27;12.88;;;;;;;17.62;83.82;100889.66;5025826;28;20061;-65
2021/06/09 03:03:47;;;;;;;15.02;12.68;;;;;;;17.58;83.84;100890.81;5031268;28;20056;-64
2021/06/09 03:06:24;;;;;;;15.13;13.05;;;;;;;17.58;84.47;100886.31;5031210;28;20408;-68
2021/06/09 03:09:01;;;;;;;14.45;12.82;;;;;;;17.58;84.64;100890.81;5032993;28;20575;-62
2021/06/09 03:12:19;;;;;;;14.32;12.82;;;;;;;17.57;84.68;100898.00;5035320;28;20052;-62
2021/06/09 03:15:11;;;;;;;14.18;12.68;;;;;;;17.54;84.63;100880.31;5002162;28;20132;-65
2021/06/09 03:17:53;;;;;;;14.43;13.02;;;;;;;17.53;84.74;100877.75;5026594;28;20493;-63
2021/06/09 03:20:46;;;;;;;13.38;12.07;;;;;;;17.53;85.02;100885.78;5037936;28;20615;-63
2021/06/09 03:23:31;;;;;;;15.23;13.02;;;;;;;17.51;84.98;100885.88;5031317;28;20069;-67
2021/06/09 03:26:32;;;;;;;14.20;12.50;;;;;;;17.50;85.01;100889.50;5023740;28;20064;-64
2021/06/09 03:29:10;;;;;;;17.25;13.88;;;;;;;17.45;84.90;100888.97;5041499;28;20049;-67
2021/06/09 03:31:46;;;;;;;16.40;13.50;;;;;;;17.42;84.74;100889.19;5030208;28;20045;-68
2021/06/09 03:34:19;;;;;;;15.63;14.02;;;;;;;17.40;84.49;100884.91;5053518;28;20059;-69
2021/06/09 03:36:48;;;;;;;15.30;13.77;;;;;;;17.38;84.50;100892.16;5057057;28;20063;-66
2021/06/09 03:39:19;;;;;;;17.20;14.00;;;;;;;17.37;84.54;100890.44;5058529;28;20049;-69
2021/06/09 03:41:51;;;;;;;17.88;13.40;;;;;;;17.38;84.77;100890.34;5060324;28;20048;-65
2021/06/09 03:44:25;;;;;;;15.68;14.10;;;;;;;17.40;84.44;100891.09;5036431;28;20050;-66
2021/06/09 03:46:54;;;;;;;15.35;13.30;;;;;;;17.40;84.67;100891.09;5040978;28;20049;-70
2021/06/09 03:49:23;;;;;;;15.38;13.77;;;;;;;17.42;84.78;100888.31;5057908;28;20048;-66
2021/06/09 03:51:50;;;;;;;16.00;13.55;;;;;;;17.46;84.57;100887.16;5049278;28;20057;-66
2021/06/09 03:54:19;;;;;;;16.20;14.50;;;;;;;17.47;83.92;100886.22;5032638;28;20587;-65
2021/06/09 03:56:48;;;;;;;17.38;14.68;;;;;;;17.47;83.62;100889.72;5032170;28;20063;-63
2021/06/09 03:59:16;;;;;;;15.60;13.85;;;;;;;17.47;83.69;100889.72;5032888;28;20424;-66
2021/06/09 04:01:44;;;;;;;17.50;13.93;;;;;;;17.50;83.90;100891.31;5047606;28;20049;-65
2021/06/09 04:04:18;;;;;;;16.52;14.32;;;;;;;17.54;84.04;100895.53;5031304;28;20506;-62
2021/06/09 04:06:46;;;;;;;16.13;14.13;;;;;;;17.57;83.96;100889.97;5029605;28;20053;-60
2021/06/09 04:09:18;;;;;;;17.20;15.38;;;;;;;17.62;83.88;100897.69;5032853;28;20512;-65
2021/06/09 04:11:49;;;;;;;17.35;14.68;;;;;;;17.62;83.54;100887.84;5025914;28;20061;-65
2021/06/09 04:14:19;;;;;;;15.95;14.18;;;;;;;17.62;83.32;100898.56;5021433;28;20046;-66
2021/06/09 04:16:46;;;;;;;18.30;14.73;;;;;;;17.63;83.39;100894.88;5019406;28;20068;-65
2021/06/09 04:19:15;;;;;;;16.20;14.50;;;;;;;17.65;83.44;100887.63;5026807;28;20053;-64
2021/06/09 04:21:41;;;;;;;14.68;12.68;;;;;;;17.72;83.38;100893.44;5032872;28;20048;-67
2021/06/09 04:24:09;;;;;;;15.93;14.10;;;;;;;17.78;83.27;100885.84;5026950;28;20041;-64
2021/06/09 04:26:38;;;;;;;15.65;13.52;;;;;;;17.86;83.20;100893.34;5036026;28;20365;-67
2021/06/09 04:29:07;;;;;;;16.15;14.43;;;;;;;17.88;82.89;100892.28;5027211;28;20214;-63
2021/06/09 04:31:34;;;;;;;15.80;14.10;;;;;;;17.92;82.42;100892.06;5030377;28;20511;-61
2021/06/09 04:34:01;;;;;;;16.15;13.77;;;;;;;17.92;81.97;100897.44;5030952;28;20127;-63
2021/06/09 04:36:28;;;;;;;15.73;14.02;;;;;;;17.96;82.57;100889.06;5024714;28;20064;-63
2021/06/09 04:38:55;;;;;;;15.35;13.43;;;;;;;18.05;82.98;100888.44;5030856;28;20071;-62
2021/06/09 04:41:22;;;;;;;16.52;14.65;;;;;;;18.19;82.47;100898.19;5028087;28;20057;-61
2021/06/09 04:43:48;;;;;;;18.45;15.05;;;;;;;18.34;81.18;100898.91;5023482;28;20238;-62
2021/06/09 04:46:20;;;;;;;16.83;14.27;;;;;;;18.41;79.89;100909.09;5032553;28;20064;-63
2021/06/09 04:49:04;;;;;;;16.30;14.57;;;;;;;18.42;79.27;100899.19;5030567;28;20562;-62
2021/06/09 04:51:36;;;;;;;16.80;13.93;;;;;;;18.45;78.72;100904.34;5035597;28;20528;-63
2021/06/09 04:54:07;;;;;;;17.98;13.25;;;;;;;18.51;78.62;100898.56;5029068;28;20057;-62
2021/06/09 04:56:36;;;;;;;15.77;13.45;;;;;;;18.62;78.60;100897.81;5028245;28;20045;-61
2021/06/09 04:59:05;;;;;;;16.60;14.77;;;;;;;18.71;78.07;100902.53;5030955;28;20048;-61
2021/06/09 05:01:35;;;;;;;15.15;12.88;;;;;;;18.83;77.75;100897.13;5026346;28;20052;-62
2021/06/09 05:04:02;;;;;;;;;;;;;;;19.03;77.56;100897.47;5028751;28;20048;-62
2021/06/09 05:06:29;;;;;;;19.33;13.93;;;;;;;19.18;75.83;100897.19;5027764;28;19931;-62
2021/06/09 05:08:56;;;;;;;14.60;13.05;;;;;;;19.31;75.81;100898.94;5029762;28;20151;-62
2021/06/09 05:11:31;;;;;;;15.07;13.50;;;;;;;19.33;74.46;100897.00;5030347;28;20168;-61
2021/06/09 05:14:01;;;;;;;16.35;13.68;;;;;;;19.24;74.66;100896.72;5026948;28;20051;-62
2021/06/09 05:16:31;;;;;;;14.98;12.65;;;;;;;19.21;74.97;100898.75;5030411;28;20064;-63
2021/06/09 05:19:00;;;;;;;;;;;;;;;19.23;74.98;100891.44;5034856;28;20045;-61
2021/06/09 05:21:31;;;;;;;15.88;13.35;;;;;;;19.24;75.06;100901.22;5032331;28;19925;-61
2021/06/09 05:23:59;;;;;;;15.70;13.77;;;;;;;19.20;74.96;100895.22;5028937;28;20049;-62
2021/06/09 05:26:27;;;;;;;16.00;14.13;;;;;;;19.21;75.39;100894.25;5032545;28;20072;-63
2021/06/09 05:28:57;;;;;;;15.88;13.00;;;;;;;19.19;75.52;100890.84;5030835;28;20083;-61
2021/06/09 05:31:25;;;;;;;14.77;12.13;;;;;;;19.31;75.80;100901.63;5030943;28;20578;-62
2021/06/09 05:33:54;;;;;;;17.50;14.00;;;;;;;19.36;74.69;100897.59;5024987;28;20103;-63
2021/06/09 05:36:21;;;;;;;15.30;13.70;;;;;;;19.40;74.61;100898.25;5029686;28;20053;-62
2021/06/09 05:38:48;;;;;;;15.07;13.52;;;;;;;19.38;74.36;100886.75;5025877;28;20060;-64
2021/06/09 05:41:17;;;;;;;16.20;14.50;;;;;;;19.38;74.00;100884.91;5023378;28;20064;-64
2021/06/09 05:43:43;;;;;;;17.17;14.20;;;;;;;19.43;74.10;100887.28;5024763;28;20048;-63
2021/06/09 05:46:10;;;;;;;14.90;13.27;;;;;;;19.48;74.02;100885.97;5031244;28;20051;-63
2021/06/09 05:48:43;;;;;;;15.80;13.63;;;;;;;19.63;73.84;100889.31;5029861;28;20057;-62
2021/06/09 05:51:11;;;;;;;16.52;14.18;;;;;;;19.80;73.70;100890.72;5027472;28;20054;-63
2021/06/09 05:53:38;;;;;;;16.92;13.93;;;;;;;19.99;73.46;100887.47;5027276;28;20048;-61
2021/06/09 05:56:05;;;;;;;18.15;13.57;;;;;;;20.11;71.84;100892.72;5027929;28;20053;-62
2021/06/09 05:58:32;;;;;;;15.23;13.38;;;;;;;20.21;71.53;100898.22;5027988;28;20045;-64
2021/06/09 06:01:04;;;;;;;18.83;13.77;;;;;;;20.36;72.28;100899.72;5034445;28;20045;-64
2021/06/09 06:03:31;;;;;;;15.52;13.82;;;;;;;20.49;72.27;100900.44;5034816;28;20061;-62
2021/06/09 06:06:00;;;;;;;15.88;13.23;;;;;;;20.65;72.07;100900.91;5028162;28;20069;-56
2021/06/09 06:08:27;;;;;;;15.88;13.43;;;;;;;20.83;71.75;100908.47;5032309;28;20784;-56
2021/06/09 06:10:55;;;;;;;15.13;13.32;;;;;;;21.12;70.12;100901.53;5029719;28;20053;-56
2021/06/09 06:13:25;;;;;;;15.15;13.55;;;;;;;21.24;69.99;100899.72;5030697;28;20052;-56
2021/06/09 06:15:55;;;;;;;16.90;12.98;;;;;;;21.80;68.44;100913.78;5026747;28;20045;-53
2021/06/09 06:18:34;;;;;;;15.18;12.18;;;;;;;22.33;66.50;100917.25;5033560;28;20068;-52
2021/06/09 06:21:01;;;;;;;21.02;18.88;;;;;;;23.40;62.91;100913.00;5028204;28;20056;-54
2021/06/09 06:23:28;;;;;;;12.82;11.45;;;;;;;24.13;60.24;100904.25;5013398;28;20045;-54
2021/06/09 06:26:08;;;;;;;13.40;11.82;;;;;;;25.00;56.62;100912.03;5030308;28;20128;-56
2021/06/09 06:28:36;;;;;;;14.13;11.00;;;;;;;25.58;54.94;100906.16;5031985;28;20052;-60
2021/06/09 06:31:04;;;;;;;12.90;11.02;;;;;;;26.70;51.53;100896.22;5025549;28;20061;-56
2021/06/09 06:33:31;;;;;;;14.35;10.90;;;;;;;27.41;49.14;100897.59;5039243;28;20048;-54
2021/06/09 06:35:59;;;;;;;11.63;10.25;;;;;;;27.92;47.38;100899.16;5027558;28;20056;-54
2021/06/09 06:38:26;;;;;;;12.13;10.60;;;;;;;27.77;47.82;100903.59;5026229;28;20041;-55
2021/06/09 06:40:53;;;;;;;11.55;10.35;;;;;;;28.04;45.61;100903.22;5034043;28;20319;-53
2021/06/09 06:43:21;;;;;;;11.85;10.75;;;;;;;28.02;45.20;100905.25;5032439;28;20145;-54
2021/06/09 06:45:47;;;;;;;12.77;10.38;;;;;;;27.55;46.79;100905.09;5037363;28;21332;-56
2021/06/09 06:48:15;;;;;;;12.95;11.25;;;;;;;26.51;48.78;100907.34;5032540;28;20876;-55
2021/06/09 06:50:43;;;;;;;12.32;11.07;;;;;;;25.53;51.76;100912.03;5034627;28;20067;-56
2021/06/09 06:53:10;;;;;;;12.90;11.60;;;;;;;25.12;52.34;100905.38;5036220;28;20663;-56
2021/06/09 06:55:36;;;;;;;11.93;10.65;;;;;;;25.78;50.96;100915.84;5034390;28;20052;-56
2021/06/09 06:58:04;;;;;;;11.32;10.20;;;;;;;26.40;49.06;100922.06;5040152;28;20049;-54
2021/06/09 07:00:31;;;;;;;12.10;10.88;;;;;;;26.68;49.68;100920.00;5036901;28;20053;-54
2021/06/09 07:02:59;;;;;;;12.95;11.73;;;;;;;26.63;48.58;100922.34;5034511;28;20087;-53
2021/06/09 07:05:29;;;;;;;12.27;11.15;;;;;;;25.91;49.41;100918.16;5019286;28;20068;-57
2021/06/09 07:07:56;;;;;;;12.70;11.40;;;;;;;25.32;51.56;100916.94;5015098;28;20055;-54
2021/06/09 07:10:23;;;;;;;11.45;10.35;;;;;;;24.89;53.94;100916.75;5034661;28;20204;-56
2021/06/09 07:12:50;;;;;;;11.68;9.98;;;;;;;24.50;54.97;100914.25;5031913;28;20519;-56
2021/06/09 07:15:19;;;;;;;12.50;11.20;;;;;;;24.63;55.65;100912.06;5038933;28;20135;-55
2021/06/09 07:17:52;;;;;;;14.70;11.40;;;;;;;24.65;54.47;100912.75;5036775;28;20144;-55
2021/06/09 07:20:21;;;;;;;12.05;10.85;;;;;;;24.60;56.01;100917.75;5039213;28;20045;-58
2021/06/09 07:22:50;;;;;;;10.45;9.45;;;;;;;24.99;55.73;100913.03;5034848;28;20053;-54
2021/06/09 07:25:17;;;;;;;11.18;9.95;;;;;;;26.66;52.13;100916.59;5035035;28;20056;-53
2021/06/09 07:27:48;;;;;;;12.45;11.05;;;;;;;28.46;47.06;100911.16;5034854;28;20049;-55
2021/06/09 07:30:17;;;;;;;12.07;10.60;;;;;;;29.66;42.22;100912.56;5050722;28;20052;-56
2021/06/09 07:32:46;;;;;;;11.43;10.35;;;;;;;30.22;39.69;100911.19;5040751;28;23046;-55
2021/06/09 07:35:14;;;;;;;10.00;8.93;;;;;;;30.70;40.19;100908.94;5038774;28;20587;-53
2021/06/09 07:37:48;;;;;;;10.98;9.98;;;;;;;30.91;38.58;100900.81;5031182;28;20160;-53
2021/06/09 07:40:25;;;;;;;11.23;10.13;;;;;;;31.54;37.69;100907.41;5030454;28;20136;-52
2021/06/09 07:42:59;;;;;;;10.02;9.02;;;;;;;31.36;37.53;100912.47;5040535;28;20067;-54
2021/06/09 07:45:27;;;;;;;12.52;10.07;;;;;;;31.25;38.15;100913.84;5041563;28;20057;-53
2021/06/09 07:47:57;;;;;;;9.32;8.43;;;;;;;31.39;38.64;100912.09;5049067;28;20064;-56
2021/06/09 07:50:25;;;;;;;;;;;;;;;32.04;37.37;100911.88;5040891;28;20071;-53
2021/06/09 07:52:55;;;;;;;10.65;9.25;;;;;;;32.04;36.47;100905.53;5043677;28;19975;-54
2021/06/09 07:55:26;;;;;;;10.25;9.15;;;;;;;31.90;35.82;100912.81;5042803;28;20418;-54
2021/06/09 07:57:54;;;;;;;9.55;8.75;;;;;;;31.66;36.63;100913.22;5040135;28;20053;-55
2021/06/09 08:00:21;;;;;;;10.00;9.00;;;;;;;31.78;37.71;100908.09;5044880;28;20060;-52
2021/06/09 08:02:48;;;;;;;9.07;8.18;;;;;;;32.16;37.56;100912.16;5044121;28;20077;-56
2021/06/09 08:05:15;;;;;;;9.50;8.30;;;;;;;32.31;36.62;100903.84;5042130;28;20051;-53
2021/06/09 08:07:41;;;;;;;10.27;9.18;;;;;;;32.31;35.36;100901.97;5047877;28;20045;-51
2021/06/09 08:10:10;;;;;;;9.48;8.48;;;;;;;32.10;36.34;100912.97;5051112;28;20052;-51
2021/06/09 08:12:37;;;;;;;10.00;9.00;;;;;;;32.27;35.61;100906.13;5052286;28;20052;-53
2021/06/09 08:15:06;;;;;;;8.80;7.95;;;;;;;32.14;35.64;100899.69;5055155;28;20045;-53
2021/06/09 08:17:33;;;;;;;9.35;8.25;;;;;;;32.48;36.36;100905.22;5037460;28;20083;-55
2021/06/09 08:20:00;;;;;;;9.85;8.90;;;;;;;32.61;35.45;100913.50;5021528;28;20041;-53
2021/06/09 08:22:26;;;;;;;9.35;8.45;;;;;;;32.55;35.20;100908.00;5056189;28;20056;-52
2021/06/09 08:24:53;;;;;;;9.68;8.77;;;;;;;32.49;35.90;100908.81;5052057;28;20441;-55
2021/06/09 08:27:19;;;;;;;10.32;9.32;;;;;;;32.16;35.96;100912.16;5044704;28;20425;-55
2021/06/09 08:29:46;;;;;;;10.32;9.32;;;;;;;31.11;36.79;100903.81;5057861;28;20504;-54
2021/06/09 08:32:12;;;;;;;13.40;10.50;;;;;;;30.56;38.47;100912.53;5050887;28;20048;-54
2021/06/09 08:34:39;;;;;;;10.82;9.70;;;;;;;30.04;39.24;100913.44;5059339;28;20045;-53
2021/06/09 08:37:06;;;;;;;10.18;9.27;;;;;;;29.74;40.67;100912.50;5046469;28;20632;-54
2021/06/09 08:39:33;;;;;;;10.48;9.35;;;;;;;30.11;40.92;100908.06;5060939;28;20044;-54
2021/06/09 08:42:04;;;;;;;13.57;11.93;;;;;;;30.35;40.20;100916.00;5058085;28;20045;-54
2021/06/09 08:44:34;;;;;;;10.95;9.85;;;;;;;30.62;39.34;100909.91;5059688;28;20045;-55
2021/06/09 08:47:03;;;;;;;;;;;;;;;30.27;39.75;100908.75;5059385;28;20045;-55
2021/06/09 08:49:30;;;;;;;10.38;9.02;;;;;;;29.24;41.93;100913.88;5060512;28;20019;-54
2021/06/09 08:51:58;;;;;;;13.57;9.73;;;;;;;28.46;43.92;100910.31;5052440;28;20052;-57
2021/06/09 08:54:25;;;;;;;11.85;10.63;;;;;;;27.50;44.97;100913.78;5051535;28;20127;-54
2021/06/09 08:56:52;;;;;;;12.35;11.07;;;;;;;26.87;46.44;100908.88;5045181;28;20045;-54
2021/06/09 08:59:24;;;;;;;11.60;10.40;;;;;;;26.50;48.21;100916.50;5046087;28;20127;-54
2021/06/09 09:01:50;;;;;;;11.63;10.52;;;;;;;26.36;49.08;100907.09;5050358;28;20051;-53
2021/06/09 09:04:17;;;;;;;11.60;10.43;;;;;;;26.21;48.67;100905.97;5047994;28;20123;-55
2021/06/09 09:06:44;;;;;;;10.73;9.48;;;;;;;26.17;49.77;100905.44;5053712;28;20279;-54
2021/06/09 09:09:10;;;;;;;10.45;9.38;;;;;;;26.22;50.33;100902.25;5052951;28;20045;-56
2021/06/09 09:11:37;;;;;;;11.13;10.02;;;;;;;26.33;49.66;100901.13;5049222;28;20049;-53
2021/06/09 09:14:03;;;;;;;10.98;9.05;;;;;;;26.25;50.40;100898.38;5055864;28;20045;-54
2021/06/09 09:16:30;;;;;;;10.80;9.52;;;;;;;26.21;49.38;100901.38;5056792;28;20055;-56
2021/06/09 09:19:05;;;;;;;11.40;10.30;;;;;;;26.03;48.36;100902.47;5048252;28;20055;-54
2021/06/09 09:21:42;;;;;;;11.10;9.35;;;;;;;26.03;49.77;100897.88;5053665;28;20195;-54
2021/06/09 09:24:10;;;;;;;11.60;10.10;;;;;;;26.08;49.10;100906.41;5043035;28;20490;-55
2021/06/09 09:26:39;;;;;;;10.55;9.07;;;;;;;26.02;49.14;100898.88;5051611;28;20049;-55
2021/06/09 09:29:21;;;;;;;10.05;9.10;;;;;;;25.97;49.84;100900.41;5041493;28;20059;-54
2021/06/09 09:32:00;;;;;;;11.05;9.95;;;;;;;25.90;50.25;100902.03;5049178;28;20778;-55
2021/06/09 09:34:36;;;;;;;9.75;8.90;;;;;;;25.92;50.36;100903.59;5047099;28;20660;-55
2021/06/09 09:37:17;;;;;;;8.55;7.72;;;;;;;25.90;49.41;100902.88;5048607;28;20045;-55
2021/06/09 09:39:49;;;;;;;10.52;8.95;;;;;;;25.71;48.95;100908.50;5049950;28;20434;-56
2021/06/09 09:42:33;;;;;;;9.80;8.80;;;;;;;25.50;50.58;100909.63;5052822;28;20056;-55
2021/06/09 09:45:29;;;;;;;8.90;8.00;;;;;;;25.40;48.83;100902.59;5054794;28;20098;-54
2021/06/09 09:48:10;;;;;;;9.52;8.65;;;;;;;25.44;50.14;100896.72;5043612;28;20049;-60
2021/06/09 09:50:39;;;;;;;;;;;;;;;25.57;50.27;100900.88;5047325;28;20613;-58
2021/06/09 09:53:22;;;;;;;10.70;9.33;;;;;;;25.78;51.02;100893.31;5048783;28;19947;-58
2021/06/09 09:56:00;;;;;;;9.75;8.80;;;;;;;26.11;50.53;100906.09;5044799;28;20045;-58
2021/06/09 09:58:28;;;;;;;9.73;8.73;;;;;;;26.40;48.69;100899.50;5047205;28;20525;-58
2021/06/09 10:01:15;;;;;;;9.23;8.32;;;;;;;26.73;47.51;100890.47;5038794;28;20053;-65
2021/06/09 10:03:45;;;;;;;8.95;8.15;;;;;;;27.06;47.26;100887.88;5040651;28;20045;-60
2021/06/09 10:06:42;;;;;;;9.73;8.68;;;;;;;27.37;46.10;100888.09;5044356;28;20037;-57
2021/06/09 10:09:21;;;;;;;8.85;7.95;;;;;;;27.58;44.67;100892.03;5038140;28;20045;-58
2021/06/09 10:11:50;;;;;;;8.90;8.07;;;;;;;27.58;44.01;100883.88;5045610;28;20048;-60
2021/06/09 10:14:38;;;;;;;9.73;7.13;;;;;;;27.61;45.56;100882.69;5047277;28;20503;-58
2021/06/09 10:17:11;;;;;;;9.45;7.93;;;;;;;27.38;44.19;100885.22;5049945;28;20067;-57
2021/06/09 10:19:50;;;;;;;10.20;9.15;;;;;;;26.99;46.97;100882.25;5040997;28;20527;-57
2021/06/09 10:22:18;;;;;;;10.00;8.93;;;;;;;26.90;48.28;100881.38;5043217;28;20806;-59
2021/06/09 10:24:53;;;;;;;9.00;8.20;;;;;;;26.92;49.44;100885.78;5048053;28;20056;-57
2021/06/09 10:27:33;;;;;;;12.85;11.60;;;;;;;26.96;49.38;100881.72;5042094;28;20049;-56
2021/06/09 10:29:59;;;;;;;10.15;9.13;;;;;;;26.61;48.61;100885.47;5042146;28;20496;-57
2021/06/09 10:32:27;;;;;;;11.75;9.70;;;;;;;26.54;50.19;100885.28;5025320;28;20064;-58
2021/06/09 10:34:53;;;;;;;10.30;9.27;;;;;;;26.64;50.03;100890.59;5043111;28;20044;-57
2021/06/09 10:37:20;;;;;;;10.25;9.20;;;;;;;26.66;49.91;100889.41;5046628;28;20071;-59
2021/06/09 10:39:47;;;;;;;11.18;9.55;;;;;;;26.52;49.25;100888.19;5024836;28;20045;-57
2021/06/09 10:42:16;;;;;;;9.88;8.88;;;;;;;26.35;50.77;100882.81;5052442;28;20095;-58
2021/06/09 10:44:46;;;;;;;9.95;9.05;;;;;;;26.10;49.50;100889.97;5047234;28;20053;-59
2021/06/09 10:47:24;;;;;;;9.30;8.38;;;;;;;25.70;49.92;100883.22;5048149;28;20041;-58
2021/06/09 10:49:51;;;;;;;8.75;7.95;;;;;;;25.74;49.93;100881.06;5050824;28;20050;-57
2021/06/09 10:52:18;;;;;;;9.93;8.52;;;;;;;26.11;49.78;100895.22;5031132;28;20433;-62
2021/06/09 10:54:45;;;;;;;9.70;8.70;;;;;;;26.32;48.72;100896.72;5029107;28;20682;-57
2021/06/09 10:57:13;;;;;;;10.07;9.00;;;;;;;26.33;47.34;100893.00;5025424;28;20685;-58
2021/06/09 10:59:39;;;;;;;9.23;8.43;;;;;;;26.39;49.05;100886.94;5029928;28;20057;-57
2021/06/09 11:02:10;;;;;;;8.75;7.95;;;;;;;26.39;47.78;100886.94;5026682;28;20045;-59
2021/06/09 11:04:43;;;;;;;8.50;7.72;;;;;;;26.47;47.78;100886.94;5029823;28;20132;-59
2021/06/09 11:07:40;;;;;;;8.82;7.90;;;;;;;26.73;47.64;100886.91;5028783;28;20072;-58
2021/06/09 11:10:37;;;;;;;7.85;7.15;;;;;;;26.96;47.51;100892.59;4993211;28;20050;-59
2021/06/09 11:13:06;;;;;;;8.48;7.57;;;;;;;27.21;46.77;100883.50;5021445;28;20048;-59
2021/06/09 11:15:36;;;;;;;8.77;7.97;;;;;;;27.44;45.89;100887.25;5025236;28;20048;-59
2021/06/09 11:18:14;;;;;;;8.73;7.78;;;;;;;27.39;43.96;100881.44;4998239;28;20521;-59
2021/06/09 11:20:44;;;;;;;8.80;7.95;;;;;;;27.19;45.07;100875.50;5018649;28;20049;-58
2021/06/09 11:23:24;;;;;;;8.23;7.18;;;;;;;27.10;45.01;100875.63;5026377;28;20052;-59
2021/06/09 11:25:51;;;;;;;7.70;7.00;;;;;;;26.92;45.45;100878.44;5027099;28;20415;-59
2021/06/09 11:28:33;;;;;;;9.15;7.15;;;;;;;26.97;45.45;100875.28;5025107;28;20127;-60
2021/06/09 11:31:07;;;;;;;7.38;6.68;;;;;;;27.06;45.59;100866.13;5026863;28;20501;-58
2021/06/09 11:33:39;;;;;;;7.35;6.70;;;;;;;27.24;45.35;100861.38;5029171;28;20421;-61